Time;durP1;ratioP1;P1;durP2;ratioP2;P2;SDS_P1;SDS_P2;PMS_P1;PMS_P2;Temp;Humidity;BMP_temperature;BMP_pressure;BME280_temperature;BME280_humidity;BME280_pressure;Samples;Min_cycle;Max_cycle;Signal;HPM_P1;HPM_P2
2024/01/18 00:01:11;;;;;;;45.10;25.70;;;2.60;99.90;;;;;;5090273;28;20051;-72
2024/01/18 00:03:39;;;;;;;43.35;25.08;;;2.70;99.90;;;;;;5091907;28;20074;-72
2024/01/18 00:06:04;;;;;;;40.97;23.83;;;2.70;99.90;;;;;;5091880;28;20028;-71
2024/01/18 00:08:30;;;;;;;43.33;23.90;;;2.70;99.90;;;;;;5091194;28;20020;-71
2024/01/18 00:10:55;;;;;;;42.00;24.85;;;2.70;99.90;;;;;;5094416;28;20055;-72
2024/01/18 00:13:21;;;;;;;45.92;24.83;;;2.70;99.90;;;;;;5091567;28;20020;-73
2024/01/18 00:15:47;;;;;;;43.92;25.40;;;2.70;99.90;;;;;;5091551;28;20061;-72
2024/01/18 00:18:12;;;;;;;43.75;24.70;;;2.70;99.90;;;;;;5091602;28;20393;-77
2024/01/18 00:20:38;;;;;;;41.58;24.38;;;2.70;99.90;;;;;;5091079;28;20031;-71
2024/01/18 00:23:04;;;;;;;48.58;26.63;;;2.70;99.90;;;;;;5091096;28;20032;-72
2024/01/18 00:25:29;;;;;;;42.28;24.58;;;2.70;99.90;;;;;;5091118;28;20032;-71
2024/01/18 00:27:55;;;;;;;40.92;25.15;;;2.70;99.90;;;;;;5090887;28;20405;-71
2024/01/18 00:30:20;;;;;;;46.13;25.50;;;2.80;99.90;;;;;;5091037;28;20345;-72
2024/01/18 00:32:46;;;;;;;44.72;24.67;;;2.80;99.90;;;;;;5091562;28;20025;-71
2024/01/18 00:35:12;;;;;;;41.65;25.25;;;2.80;99.90;;;;;;5090879;28;20032;-72
2024/01/18 00:37:37;;;;;;;42.17;25.77;;;2.80;99.90;;;;;;5090989;28;20024;-73
2024/01/18 00:40:03;;;;;;;45.55;25.63;;;2.80;99.90;;;;;;5091306;28;20056;-72
2024/01/18 00:42:29;;;;;;;45.03;25.17;;;2.80;99.90;;;;;;5090995;28;20047;-72
2024/01/18 00:44:54;;;;;;;40.72;24.60;;;2.80;99.90;;;;;;5091232;28;20017;-72
2024/01/18 00:47:20;;;;;;;42.45;25.60;;;2.80;99.90;;;;;;5089945;28;20036;-72
2024/01/18 00:49:46;;;;;;;41.53;26.08;;;2.80;99.90;;;;;;5091317;28;20115;-71
2024/01/18 00:52:11;;;;;;;43.10;25.73;;;2.80;99.90;;;;;;5091393;28;20115;-71
2024/01/18 00:54:37;;;;;;;41.58;25.55;;;2.90;99.90;;;;;;5094642;28;20016;-72
2024/01/18 00:57:03;;;;;;;42.30;26.77;;;2.80;99.90;;;;;;5094980;28;20016;-72
2024/01/18 00:59:28;;;;;;;42.60;26.10;;;2.90;99.90;;;;;;5094332;28;20131;-72
2024/01/18 01:01:54;;;;;;;45.67;26.83;;;2.90;99.90;;;;;;5094918;28;20448;-72
2024/01/18 01:04:19;;;;;;;42.78;25.70;;;2.90;99.90;;;;;;5096177;28;20055;-71
2024/01/18 01:06:45;;;;;;;43.08;26.13;;;2.90;99.90;;;;;;5106013;28;20019;-69
2024/01/18 01:09:11;;;;;;;41.00;25.83;;;2.90;99.90;;;;;;5103752;28;20015;-70
2024/01/18 01:11:37;;;;;;;43.10;26.65;;;2.90;99.90;;;;;;5102307;28;20028;-71
2024/01/18 01:14:02;;;;;;;41.65;26.77;;;3.00;99.90;;;;;;5096911;28;20460;-71
2024/01/18 01:16:28;;;;;;;42.83;25.88;;;3.00;99.90;;;;;;5099444;28;20107;-73
2024/01/18 01:18:54;;;;;;;42.40;26.45;;;3.00;99.90;;;;;;5098432;28;20023;-73
2024/01/18 01:21:19;;;;;;;43.00;26.10;;;3.00;99.90;;;;;;5093454;28;20122;-71
2024/01/18 01:23:48;;;;;;;40.25;25.75;;;3.00;99.90;;;;;;5093832;28;20087;-70
2024/01/18 01:26:15;;;;;;;38.92;26.27;;;3.00;99.90;;;;;;5092534;28;20020;-72
2024/01/18 01:28:41;;;;;;;44.25;26.08;;;3.00;99.90;;;;;;5093559;28;20060;-73
2024/01/18 01:31:07;;;;;;;42.17;27.88;;;3.00;99.90;;;;;;5094045;28;20394;-70
2024/01/18 01:33:33;;;;;;;42.05;26.45;;;3.00;99.90;;;;;;5093549;28;20095;-69
2024/01/18 01:35:58;;;;;;;42.88;25.95;;;3.00;99.90;;;;;;5093880;28;20107;-73
2024/01/18 01:38:24;;;;;;;43.53;26.00;;;3.10;99.90;;;;;;5093794;28;20016;-78
2024/01/18 01:40:50;;;;;;;44.25;26.85;;;3.10;99.90;;;;;;5093834;28;20016;-78
2024/01/18 01:43:16;;;;;;;42.33;25.65;;;3.10;99.90;;;;;;5093957;28;20016;-78
2024/01/18 01:45:42;;;;;;;42.28;25.70;;;3.10;99.90;;;;;;5093667;28;20187;-79
2024/01/18 01:48:08;;;;;;;37.85;25.73;;;3.10;99.90;;;;;;5093117;28;20099;-78
2024/01/18 01:50:35;;;;;;;40.20;25.02;;;3.10;99.90;;;;;;5096668;28;20020;-74
2024/01/18 01:53:01;;;;;;;40.72;27.10;;;3.10;99.90;;;;;;5105919;28;20360;-75
2024/01/18 01:55:27;;;;;;;42.22;25.15;;;3.10;99.90;;;;;;5105125;28;20078;-74
2024/01/18 01:57:53;;;;;;;42.55;24.58;;;3.10;99.90;;;;;;5107845;28;20507;-74
2024/01/18 02:00:21;;;;;;;42.95;26.00;;;3.10;99.90;;;;;;5105945;28;20074;-79
2024/01/18 02:02:47;;;;;;;46.47;26.15;;;3.10;99.90;;;;;;5106240;28;20083;-75
2024/01/18 02:05:14;;;;;;;46.45;27.55;;;3.10;99.90;;;;;;5101146;28;20455;-75
2024/01/18 02:07:40;;;;;;;43.20;26.90;;;3.10;99.90;;;;;;5107327;28;20023;-74
2024/01/18 02:10:09;;;;;;;45.08;27.70;;;3.10;99.90;;;;;;5106591;28;20031;-74
2024/01/18 02:12:35;;;;;;;44.47;28.02;;;3.10;99.90;;;;;;5102463;28;20404;-74
2024/01/18 02:15:01;;;;;;;42.03;26.90;;;3.10;99.90;;;;;;5107594;28;20286;-74
2024/01/18 02:17:28;;;;;;;44.40;27.13;;;3.10;99.90;;;;;;5102266;28;20401;-74
2024/01/18 02:19:54;;;;;;;46.17;27.05;;;3.10;99.90;;;;;;5098442;28;20028;-74
2024/01/18 02:22:22;;;;;;;45.63;28.92;;;3.20;99.90;;;;;;5099085;28;20020;-74
2024/01/18 02:24:51;;;;;;;49.45;28.10;;;3.20;99.90;;;;;;5097655;28;20073;-74
2024/01/18 02:27:17;;;;;;;53.20;28.75;;;3.20;99.90;;;;;;5101272;28;20019;-73
2024/01/18 02:29:43;;;;;;;54.53;28.20;;;3.20;99.90;;;;;;5091096;28;20036;-74
2024/01/18 02:32:09;;;;;;;49.85;28.05;;;3.20;99.90;;;;;;5093310;28;20449;-74
2024/01/18 02:34:43;;;;;;;56.33;31.13;;;3.20;99.90;;;;;;5092109;28;20030;-74
2024/01/18 02:37:09;;;;;;;48.30;27.83;;;3.20;99.90;;;;;;5090629;28;20050;-74
2024/01/18 02:39:36;;;;;;;47.40;26.05;;;3.20;99.90;;;;;;5092534;28;20028;-74
2024/01/18 02:42:02;;;;;;;53.15;29.50;;;3.20;99.90;;;;;;5093185;28;20065;-73
2024/01/18 02:44:28;;;;;;;50.42;27.85;;;3.20;99.90;;;;;;5092294;28;20021;-74
2024/01/18 02:46:54;;;;;;;54.35;28.42;;;3.20;99.90;;;;;;5093217;28;20098;-73
2024/01/18 02:49:19;;;;;;;55.20;27.85;;;3.20;99.90;;;;;;5092853;28;20024;-74
2024/01/18 02:51:45;;;;;;;50.80;27.98;;;3.20;99.90;;;;;;5092656;28;20156;-74
2024/01/18 02:54:11;;;;;;;55.13;28.00;;;3.20;99.90;;;;;;5092982;28;20433;-75
2024/01/18 02:56:40;;;;;;;58.97;29.88;;;3.20;99.90;;;;;;5092443;28;20031;-74
2024/01/18 02:59:06;;;;;;;55.15;29.25;;;3.20;99.90;;;;;;5092886;28;20121;-74
2024/01/18 03:01:32;;;;;;;55.28;28.30;;;3.20;99.90;;;;;;5091268;28;20028;-73
2024/01/18 03:03:57;;;;;;;52.08;28.55;;;3.10;99.90;;;;;;5092946;28;20020;-74
2024/01/18 03:06:23;;;;;;;59.30;28.75;;;3.10;99.90;;;;;;5092741;28;20047;-80
2024/01/18 03:08:49;;;;;;;60.08;30.08;;;3.10;99.90;;;;;;5092992;28;20028;-75
2024/01/18 03:11:15;;;;;;;57.60;31.00;;;3.10;99.90;;;;;;5092780;28;20077;-74
2024/01/18 03:13:41;;;;;;;56.55;29.80;;;3.20;99.90;;;;;;5091006;28;20054;-75
2024/01/18 03:16:07;;;;;;;61.45;30.33;;;3.20;99.90;;;;;;5091141;28;20457;-75
2024/01/18 03:18:34;;;;;;;63.00;31.05;;;3.20;99.90;;;;;;5092305;28;20096;-75
2024/01/18 03:21:04;;;;;;;70.70;34.55;;;3.20;99.90;;;;;;5091083;28;20115;-74
2024/01/18 03:23:30;;;;;;;67.45;31.85;;;3.20;99.90;;;;;;5091825;28;20376;-75
2024/01/18 03:25:55;;;;;;;68.93;32.38;;;3.20;99.90;;;;;;5091159;28;20016;-74
2024/01/18 03:28:21;;;;;;;69.82;32.38;;;3.20;99.90;;;;;;5091703;28;20016;-74
2024/01/18 03:30:46;;;;;;;68.18;33.67;;;3.20;99.90;;;;;;5091815;28;20067;-74
2024/01/18 03:33:12;;;;;;;73.22;32.05;;;3.20;99.90;;;;;;5091078;28;20028;-74
2024/01/18 03:35:38;;;;;;;78.88;35.13;;;3.20;99.90;;;;;;5091654;28;20016;-74
2024/01/18 03:38:04;;;;;;;81.00;36.45;;;3.20;99.90;;;;;;5092327;28;20020;-74
2024/01/18 03:40:29;;;;;;;82.47;35.17;;;3.20;99.90;;;;;;5091582;28;20026;-74
2024/01/18 03:42:55;;;;;;;85.03;34.75;;;3.20;99.90;;;;;;5091993;28;20016;-74
2024/01/18 03:45:21;;;;;;;88.90;35.45;;;3.20;99.90;;;;;;5092229;28;20035;-74
2024/01/18 03:47:46;;;;;;;91.07;36.28;;;3.20;99.90;;;;;;5090485;28;20024;-74
2024/01/18 03:50:12;;;;;;;81.97;35.40;;;3.20;99.90;;;;;;5092073;28;20024;-73
2024/01/18 03:52:38;;;;;;;85.22;36.80;;;3.20;99.90;;;;;;5091915;28;20154;-74
2024/01/18 03:55:05;;;;;;;87.38;35.50;;;3.20;99.90;;;;;;5092140;28;20027;-73
2024/01/18 03:57:31;;;;;;;86.78;34.33;;;3.30;99.90;;;;;;5091843;28;20442;-75
2024/01/18 03:59:57;;;;;;;61.20;30.30;;;3.30;99.90;;;;;;5090520;28;20047;-74
2024/01/18 04:02:22;;;;;;;62.03;29.95;;;3.30;99.90;;;;;;5092226;28;20074;-74
2024/01/18 04:04:48;;;;;;;55.45;28.52;;;3.20;99.90;;;;;;5091686;28;20028;-75
2024/01/18 04:07:15;;;;;;;59.97;30.40;;;3.20;99.90;;;;;;5091756;28;20016;-73
2024/01/18 04:09:40;;;;;;;59.97;31.00;;;3.20;99.90;;;;;;5091447;28;20337;-75
2024/01/18 04:12:07;;;;;;;58.30;29.20;;;3.20;99.90;;;;;;5092372;28;20039;-75
2024/01/18 04:14:32;;;;;;;57.08;27.15;;;3.10;99.90;;;;;;5092368;28;20027;-74
2024/01/18 04:16:58;;;;;;;52.03;27.33;;;3.10;99.90;;;;;;5103379;28;20093;-73
2024/01/18 04:19:23;;;;;;;53.58;27.85;;;3.10;99.90;;;;;;5114050;28;20063;-74
2024/01/18 04:21:49;;;;;;;57.90;28.00;;;3.00;99.90;;;;;;5111903;28;20028;-74
2024/01/18 04:24:15;;;;;;;51.65;26.42;;;3.00;99.90;;;;;;5111057;28;20019;-74
2024/01/18 04:26:41;;;;;;;49.20;26.30;;;3.00;99.90;;;;;;5111646;28;20020;-74
2024/01/18 04:29:06;;;;;;;45.70;25.05;;;3.00;99.90;;;;;;5115326;28;20027;-75
2024/01/18 04:31:32;;;;;;;47.50;25.48;;;3.00;99.90;;;;;;5115797;28;20038;-74
2024/01/18 04:33:57;;;;;;;52.15;26.17;;;3.00;99.90;;;;;;5114849;28;20020;-75
2024/01/18 04:36:23;;;;;;;49.70;25.75;;;3.00;99.90;;;;;;5115735;28;20122;-75
2024/01/18 04:38:48;;;;;;;47.80;25.10;;;3.00;99.90;;;;;;5115665;28;20023;-75
2024/01/18 04:41:15;;;;;;;45.03;25.73;;;3.00;99.90;;;;;;5101961;28;20282;-75
2024/01/18 04:43:40;;;;;;;50.90;24.90;;;3.00;99.90;;;;;;5095194;28;20016;-75
2024/01/18 04:46:09;;;;;;;48.05;26.15;;;3.00;99.90;;;;;;5094046;28;20478;-75
2024/01/18 04:48:36;;;;;;;49.95;26.00;;;3.10;99.90;;;;;;5095005;28;20027;-76
2024/01/18 04:51:03;;;;;;;50.65;26.27;;;3.10;99.90;;;;;;5093922;28;20042;-75
2024/01/18 04:53:29;;;;;;;49.65;26.20;;;3.10;99.90;;;;;;5095434;28;20356;-73
2024/01/18 04:55:55;;;;;;;55.88;26.35;;;3.10;99.90;;;;;;5093221;28;20048;-75
2024/01/18 04:58:21;;;;;;;50.35;26.45;;;3.10;99.90;;;;;;5095256;28;20020;-74
2024/01/18 05:00:47;;;;;;;49.63;26.15;;;3.10;99.90;;;;;;5094455;28;20085;-73
2024/01/18 05:03:12;;;;;;;50.38;27.25;;;3.10;99.90;;;;;;5093778;28;20023;-73
2024/01/18 05:05:38;;;;;;;48.25;26.15;;;3.10;99.90;;;;;;5094694;28;20024;-75
2024/01/18 05:08:04;;;;;;;48.08;26.38;;;3.10;99.90;;;;;;5093583;28;20099;-76
2024/01/18 05:10:29;;;;;;;49.58;24.92;;;3.10;99.90;;;;;;5094931;28;20028;-75
2024/01/18 05:12:56;;;;;;;54.10;27.65;;;3.10;99.90;;;;;;5094748;28;20141;-74
2024/01/18 05:15:24;;;;;;;47.85;25.08;;;3.10;99.90;;;;;;5094851;28;20017;-75
2024/01/18 05:17:50;;;;;;;49.03;26.05;;;3.10;99.90;;;;;;5094537;28;20039;-74
2024/01/18 05:20:15;;;;;;;47.47;25.55;;;3.10;99.90;;;;;;5094565;28;20112;-74
2024/01/18 05:22:42;;;;;;;50.72;26.10;;;3.10;99.90;;;;;;5093991;28;20012;-74
2024/01/18 05:25:08;;;;;;;49.63;26.75;;;3.10;99.90;;;;;;5093365;28;20020;-73
2024/01/18 05:27:34;;;;;;;46.80;26.25;;;3.10;99.90;;;;;;5094793;28;20016;-79
2024/01/18 05:30:00;;;;;;;46.55;25.25;;;3.10;99.90;;;;;;5094691;28;20024;-74
2024/01/18 05:32:26;;;;;;;44.83;24.25;;;3.10;99.90;;;;;;5093310;28;20035;-74
2024/01/18 05:34:52;;;;;;;47.33;25.63;;;3.10;99.90;;;;;;5094031;28;20020;-74
2024/01/18 05:37:22;;;;;;;48.15;24.63;;;3.10;99.90;;;;;;5094380;28;20377;-73
2024/01/18 05:39:48;;;;;;;45.13;24.88;;;3.10;99.90;;;;;;5093728;28;20026;-75
2024/01/18 05:42:14;;;;;;;46.05;23.40;;;3.10;99.90;;;;;;5094409;28;20403;-75
2024/01/18 05:44:39;;;;;;;43.65;23.75;;;3.10;99.90;;;;;;5093727;28;20020;-75
2024/01/18 05:47:05;;;;;;;44.22;23.80;;;3.20;99.90;;;;;;5094737;28;20023;-75
2024/01/18 05:49:31;;;;;;;44.47;23.75;;;3.20;99.90;;;;;;5094480;28;20039;-75
2024/01/18 05:51:56;;;;;;;48.78;24.88;;;3.20;99.90;;;;;;5093987;28;20483;-75
2024/01/18 05:54:22;;;;;;;39.45;23.13;;;3.20;99.90;;;;;;5094350;28;20031;-74
2024/01/18 05:56:48;;;;;;;45.78;25.08;;;3.20;99.90;;;;;;5093560;28;20020;-74
2024/01/18 05:59:14;;;;;;;48.85;26.58;;;3.20;99.90;;;;;;5093636;28;20158;-75
2024/01/18 06:01:41;;;;;;;51.92;27.10;;;3.20;99.90;;;;;;5093480;28;20043;-75
2024/01/18 06:04:07;;;;;;;50.53;26.05;;;3.20;99.90;;;;;;5094083;28;20016;-75
2024/01/18 06:06:32;;;;;;;45.05;24.65;;;3.20;99.90;;;;;;5094055;28;20034;-74
2024/01/18 06:08:58;;;;;;;42.83;24.10;;;3.20;99.90;;;;;;5093467;28;20024;-74
2024/01/18 06:11:24;;;;;;;46.13;23.90;;;3.20;99.90;;;;;;5093971;28;20063;-74
2024/01/18 06:13:50;;;;;;;48.28;24.02;;;3.30;99.90;;;;;;5093348;28;20024;-75
2024/01/18 06:16:16;;;;;;;42.25;24.15;;;3.30;99.90;;;;;;5093702;28;20460;-74
2024/01/18 06:18:42;;;;;;;48.75;25.88;;;3.30;99.90;;;;;;5094656;28;20043;-75
2024/01/18 06:21:09;;;;;;;51.17;25.63;;;3.30;99.90;;;;;;5113888;28;20456;-75
2024/01/18 06:23:35;;;;;;;48.88;24.52;;;3.30;99.90;;;;;;5097442;28;20055;-75
2024/01/18 06:26:01;;;;;;;50.47;25.13;;;3.40;99.90;;;;;;5093090;28;20008;-74
2024/01/18 06:28:27;;;;;;;50.35;23.90;;;3.40;99.90;;;;;;5093144;28;20024;-75
2024/01/18 06:30:53;;;;;;;45.15;24.88;;;3.40;99.90;;;;;;5092345;28;20359;-75
2024/01/18 06:33:19;;;;;;;47.58;25.33;;;3.40;99.90;;;;;;5090037;28;20103;-75
2024/01/18 06:35:45;;;;;;;49.13;25.65;;;3.40;99.90;;;;;;5092870;28;20027;-76
2024/01/18 06:38:11;;;;;;;44.53;24.70;;;3.40;99.90;;;;;;5093003;28;20024;-75
2024/01/18 06:40:37;;;;;;;44.47;25.15;;;3.40;99.90;;;;;;5093038;28;20023;-75
2024/01/18 06:43:03;;;;;;;47.95;25.40;;;3.40;99.90;;;;;;5092529;28;20027;-74
2024/01/18 06:45:29;;;;;;;49.03;25.85;;;3.40;99.90;;;;;;5090207;28;20020;-74
2024/01/18 06:47:55;;;;;;;50.88;26.55;;;3.40;99.90;;;;;;5092685;28;20020;-74
2024/01/18 06:50:22;;;;;;;49.53;27.42;;;3.40;99.90;;;;;;5092078;28;20334;-75
2024/01/18 06:52:48;;;;;;;50.13;25.02;;;3.40;99.90;;;;;;5092760;28;20012;-74
2024/01/18 06:55:14;;;;;;;49.83;27.10;;;3.40;99.90;;;;;;5093298;28;20104;-74
2024/01/18 06:57:39;;;;;;;49.38;26.17;;;3.40;99.90;;;;;;5092741;28;20103;-75
2024/01/18 07:00:06;;;;;;;47.60;25.13;;;3.40;99.90;;;;;;5091119;28;20080;-74
2024/01/18 07:02:33;;;;;;;45.65;26.27;;;3.40;99.90;;;;;;5092372;28;20032;-74
2024/01/18 07:04:59;;;;;;;47.63;26.02;;;3.40;99.90;;;;;;5092181;28;20024;-74
2024/01/18 07:07:25;;;;;;;47.95;25.83;;;3.40;99.90;;;;;;5091371;28;20057;-75
2024/01/18 07:09:51;;;;;;;46.20;25.88;;;3.40;99.90;;;;;;5092168;28;20353;-74
2024/01/18 07:12:17;;;;;;;46.92;24.67;;;3.40;99.90;;;;;;5092262;28;20367;-74
2024/01/18 07:14:42;;;;;;;46.42;26.05;;;3.40;99.90;;;;;;5091997;28;20058;-75
2024/01/18 07:17:10;;;;;;;41.25;23.65;;;3.50;99.90;;;;;;5092664;28;20020;-73
2024/01/18 07:19:36;;;;;;;39.80;21.80;;;3.50;99.90;;;;;;5092405;28;20341;-74
2024/01/18 07:22:01;;;;;;;37.30;22.73;;;3.50;99.90;;;;;;5092019;28;20103;-75
2024/01/18 07:24:30;;;;;;;48.15;23.73;;;3.50;99.90;;;;;;5092103;28;20068;-74
2024/01/18 07:26:59;;;;;;;44.80;24.95;;;3.50;99.90;;;;;;5092067;28;20012;-75
2024/01/18 07:29:25;;;;;;;44.20;23.77;;;3.50;99.90;;;;;;5092248;28;20038;-74
2024/01/18 07:31:50;;;;;;;41.53;22.15;;;3.50;99.90;;;;;;5091801;28;20392;-74
2024/01/18 07:34:16;;;;;;;44.40;23.10;;;3.50;99.90;;;;;;5093637;28;20024;-74
2024/01/18 07:36:43;;;;;;;47.67;23.67;;;3.50;99.90;;;;;;5092989;28;20020;-76
2024/01/18 07:39:12;;;;;;;47.22;25.92;;;3.50;99.90;;;;;;5093201;28;20079;-75
2024/01/18 07:41:37;;;;;;;45.03;23.73;;;3.50;99.90;;;;;;5090999;28;20024;-73
2024/01/18 07:44:03;;;;;;;41.55;23.13;;;3.50;99.90;;;;;;5091820;28;20028;-74
2024/01/18 07:46:29;;;;;;;38.92;22.23;;;3.50;99.90;;;;;;5092175;28;20048;-74
2024/01/18 07:48:54;;;;;;;40.63;22.52;;;3.50;99.90;;;;;;5091355;28;20403;-75
2024/01/18 07:51:20;;;;;;;43.00;22.55;;;3.60;99.90;;;;;;5091999;28;20028;-73
2024/01/18 07:53:45;;;;;;;44.20;22.55;;;3.60;99.90;;;;;;5090972;28;20089;-74
2024/01/18 07:56:11;;;;;;;42.60;23.05;;;3.60;99.90;;;;;;5090236;28;20520;-75
2024/01/18 07:58:40;;;;;;;39.55;20.98;;;3.60;99.90;;;;;;5091800;28;20045;-73
2024/01/18 08:01:06;;;;;;;42.55;23.02;;;3.60;99.90;;;;;;5088827;28;20040;-75
2024/01/18 08:03:32;;;;;;;42.08;22.13;;;3.60;99.90;;;;;;5095347;28;20020;-75
2024/01/18 08:05:58;;;;;;;41.35;23.67;;;3.60;99.90;;;;;;5095209;28;20101;-75
2024/01/18 08:08:23;;;;;;;44.58;23.98;;;3.60;99.90;;;;;;5095980;28;20020;-74
2024/01/18 08:10:49;;;;;;;39.88;22.33;;;3.60;99.90;;;;;;5093574;28;20111;-76
2024/01/18 08:13:15;;;;;;;38.97;22.30;;;3.60;99.90;;;;;;5095550;28;20016;-74
2024/01/18 08:15:41;;;;;;;34.47;21.25;;;3.70;99.90;;;;;;5095567;28;20016;-75
2024/01/18 08:18:07;;;;;;;41.22;22.48;;;3.70;99.90;;;;;;5096980;28;20047;-74
2024/01/18 08:20:32;;;;;;;40.65;21.75;;;3.70;99.90;;;;;;5097026;28;20377;-74
2024/01/18 08:22:58;;;;;;;40.75;22.75;;;3.70;99.90;;;;;;5094976;28;20027;-74
2024/01/18 08:25:24;;;;;;;44.53;22.38;;;3.70;99.90;;;;;;5093998;28;20019;-74
2024/01/18 08:27:53;;;;;;;36.20;21.45;;;3.70;99.90;;;;;;5093521;28;20103;-74
2024/01/18 08:30:20;;;;;;;40.33;22.70;;;3.70;99.90;;;;;;5095297;28;20023;-74
2024/01/18 08:32:46;;;;;;;44.70;22.75;;;3.70;99.90;;;;;;5093447;28;20024;-74
2024/01/18 08:35:11;;;;;;;45.85;22.17;;;3.70;99.90;;;;;;5095257;28;20023;-75
2024/01/18 08:37:37;;;;;;;36.92;22.10;;;3.70;99.90;;;;;;5094791;28;20020;-76
2024/01/18 08:40:04;;;;;;;40.88;22.33;;;3.70;99.90;;;;;;5094813;28;20024;-75
2024/01/18 08:42:30;;;;;;;45.30;23.48;;;3.80;99.90;;;;;;5094840;28;20301;-75
2024/01/18 08:44:56;;;;;;;40.13;22.27;;;3.80;99.90;;;;;;5094412;28;20016;-74
2024/01/18 08:47:26;;;;;;;40.10;22.27;;;3.80;99.90;;;;;;5094953;28;20027;-76
2024/01/18 08:49:52;;;;;;;46.83;24.40;;;3.80;99.90;;;;;;5094580;28;20020;-74
2024/01/18 08:52:19;;;;;;;44.03;22.83;;;3.80;99.90;;;;;;5090717;28;20020;-73
2024/01/18 08:54:44;;;;;;;43.92;22.52;;;3.80;99.90;;;;;;5075769;28;20032;-76
2024/01/18 08:57:10;;;;;;;38.22;21.00;;;3.90;99.90;;;;;;5075858;28;20424;-74
2024/01/18 08:59:35;;;;;;;48.05;21.60;;;3.90;99.90;;;;;;5078993;28;20461;-74
2024/01/18 09:02:01;;;;;;;44.40;23.00;;;3.90;99.90;;;;;;5076983;28;20440;-74
2024/01/18 09:04:27;;;;;;;45.97;21.65;;;4.00;99.90;;;;;;5074634;28;20131;-74
2024/01/18 09:06:53;;;;;;;39.75;21.45;;;4.00;99.90;;;;;;5074369;28;20017;-73
2024/01/18 09:09:19;;;;;;;39.15;19.80;;;4.00;99.90;;;;;;5074206;28;20365;-74
2024/01/18 09:11:45;;;;;;;42.25;21.15;;;4.10;99.90;;;;;;5072731;28;20028;-75
2024/01/18 09:14:10;;;;;;;39.45;21.58;;;4.10;99.90;;;;;;5073811;28;20020;-74
2024/01/18 09:16:36;;;;;;;41.25;20.90;;;4.10;99.90;;;;;;5073936;28;20114;-74
2024/01/18 09:19:01;;;;;;;43.85;20.85;;;4.20;99.90;;;;;;5074024;28;20526;-74
2024/01/18 09:21:27;;;;;;;45.42;22.27;;;4.20;99.90;;;;;;5074558;28;20020;-74
2024/01/18 09:23:53;;;;;;;40.65;21.02;;;4.30;99.90;;;;;;5074111;28;20460;-73
2024/01/18 09:26:18;;;;;;;37.55;20.88;;;4.30;99.90;;;;;;5074081;28;20021;-73
2024/01/18 09:28:45;;;;;;;45.67;22.67;;;4.30;99.90;;;;;;5082130;28;20020;-80
2024/01/18 09:31:12;;;;;;;46.17;22.40;;;4.40;99.90;;;;;;5094566;28;20153;-74
2024/01/18 09:33:38;;;;;;;42.08;23.48;;;4.40;99.90;;;;;;5094264;28;20053;-74
2024/01/18 09:36:06;;;;;;;44.97;22.45;;;4.40;99.90;;;;;;5093798;28;20103;-74
2024/01/18 09:38:33;;;;;;;39.50;21.92;;;4.50;99.90;;;;;;5093943;28;20095;-73
2024/01/18 09:41:07;;;;;;;41.35;23.20;;;4.50;99.90;;;;;;5093420;28;20035;-74
2024/01/18 09:43:38;;;;;;;44.10;22.80;;;4.50;99.90;;;;;;5094211;28;20109;-73
2024/01/18 09:46:07;;;;;;;37.67;23.00;;;4.60;99.90;;;;;;5093538;28;20028;-74
2024/01/18 09:48:34;;;;;;;40.40;20.70;;;4.60;99.90;;;;;;5093764;28;20107;-74
2024/01/18 09:51:01;;;;;;;36.80;21.45;;;4.60;99.90;;;;;;5093346;28;20110;-74
2024/01/18 09:53:27;;;;;;;39.78;22.02;;;4.60;99.90;;;;;;5093927;28;20028;-73
2024/01/18 09:55:54;;;;;;;38.50;21.80;;;4.60;99.90;;;;;;5093074;28;20019;-73
2024/01/18 09:58:20;;;;;;;37.13;21.35;;;4.70;99.90;;;;;;5093922;28;20114;-73
2024/01/18 10:00:55;;;;;;;37.08;21.00;;;4.70;99.90;;;;;;5093640;28;20046;-79
2024/01/18 10:03:21;;;;;;;38.45;21.77;;;4.70;99.90;;;;;;5093505;28;20457;-74
2024/01/18 10:05:47;;;;;;;37.22;20.70;;;4.70;99.90;;;;;;5093305;28;20035;-74
2024/01/18 10:08:13;;;;;;;41.75;22.92;;;4.70;99.90;;;;;;5093783;28;20024;-74
2024/01/18 10:10:38;;;;;;;41.63;20.98;;;4.80;99.90;;;;;;5092207;28;20020;-74
2024/01/18 10:13:04;;;;;;;39.75;21.73;;;4.80;99.90;;;;;;5091764;28;20127;-73
2024/01/18 10:15:33;;;;;;;40.80;22.45;;;4.80;99.90;;;;;;5093492;28;20024;-73
2024/01/18 10:18:04;;;;;;;36.15;21.13;;;4.90;99.90;;;;;;5092936;28;20068;-74
2024/01/18 10:20:30;;;;;;;45.30;22.58;;;4.90;99.90;;;;;;5093392;28;20054;-74
2024/01/18 10:22:57;;;;;;;47.08;23.60;;;4.90;99.90;;;;;;5096405;28;20020;-74
2024/01/18 10:25:25;;;;;;;41.22;22.08;;;5.00;99.90;;;;;;5112575;28;20024;-74
2024/01/18 10:27:52;;;;;;;40.90;21.88;;;5.00;99.90;;;;;;5111683;28;20413;-74
2024/01/18 10:30:18;;;;;;;44.65;21.15;;;5.00;99.90;;;;;;5113486;28;20023;-74
2024/01/18 10:32:45;;;;;;;40.13;19.92;;;5.10;99.90;;;;;;5113740;28;20024;-73
2024/01/18 10:35:37;;;;;;;35.13;20.45;;;5.10;99.90;;;;;;5112951;28;20111;-73
2024/01/18 10:38:04;;;;;;;40.80;21.05;;;5.20;99.90;;;;;;5109527;28;20043;-74
2024/01/18 10:40:32;;;;;;;34.45;20.08;;;5.20;99.90;;;;;;5113192;28;20333;-74
2024/01/18 10:42:59;;;;;;;39.53;19.65;;;5.20;99.90;;;;;;5093813;28;20035;-74
2024/01/18 10:45:27;;;;;;;29.95;18.83;;;5.30;99.90;;;;;;5092852;28;20035;-74
2024/01/18 10:47:57;;;;;;;35.15;19.83;;;5.30;99.90;;;;;;5092317;28;20043;-74
2024/01/18 10:50:23;;;;;;;36.72;19.33;;;5.40;99.90;;;;;;5093305;28;20116;-75
2024/01/18 10:52:50;;;;;;;34.00;19.48;;;5.40;99.90;;;;;;5094576;28;20035;-75
2024/01/18 10:55:16;;;;;;;35.28;20.25;;;5.40;99.90;;;;;;5093844;28;20449;-74
2024/01/18 10:57:42;;;;;;;32.75;18.45;;;5.50;99.90;;;;;;5092844;28;20103;-74
2024/01/18 11:00:08;;;;;;;34.78;18.75;;;5.60;99.90;;;;;;5092043;28;20397;-74
2024/01/18 11:02:40;;;;;;;37.13;19.00;;;5.60;99.90;;;;;;5092325;28;20097;-75
2024/01/18 11:05:10;;;;;;;33.00;19.75;;;5.60;99.90;;;;;;5092386;28;20020;-74
2024/01/18 11:07:37;;;;;;;39.72;20.98;;;5.70;99.90;;;;;;5091241;28;20020;-75
2024/01/18 11:10:11;;;;;;;39.38;20.63;;;5.70;99.90;;;;;;5092235;28;20024;-74
2024/01/18 11:12:39;;;;;;;44.03;23.38;;;5.80;99.90;;;;;;5091275;28;20020;-73
2024/01/18 11:15:06;;;;;;;31.88;19.38;;;5.80;99.90;;;;;;5090741;28;20028;-73
2024/01/18 11:17:34;;;;;;;34.63;19.25;;;5.90;99.90;;;;;;5092268;28;20015;-74
2024/01/18 11:20:00;;;;;;;39.15;20.00;;;5.90;99.90;;;;;;5091983;28;20470;-73
2024/01/18 11:22:27;;;;;;;34.35;19.67;;;6.00;99.90;;;;;;5092298;28;20059;-74
2024/01/18 11:25:01;;;;;;;37.28;19.98;;;6.00;99.90;;;;;;5091937;28;20028;-75
2024/01/18 11:27:26;;;;;;;33.40;20.15;;;6.00;99.90;;;;;;5092406;28;20097;-74
2024/01/18 11:29:53;;;;;;;32.97;20.15;;;6.10;99.90;;;;;;5091728;28;20416;-74
2024/01/18 11:32:19;;;;;;;35.45;19.77;;;6.10;99.90;;;;;;5092251;28;20023;-74
2024/01/18 11:34:47;;;;;;;36.08;19.10;;;6.10;99.90;;;;;;5091886;28;20041;-74
2024/01/18 11:37:18;;;;;;;32.85;19.15;;;6.10;99.90;;;;;;5091516;28;20020;-74
2024/01/18 11:39:47;;;;;;;38.53;21.90;;;6.20;99.90;;;;;;5092136;28;20027;-74
2024/01/18 11:42:20;;;;;;;35.55;20.40;;;6.10;99.90;;;;;;5091653;28;20038;-74
2024/01/18 11:45:24;;;;;;;37.20;19.88;;;6.20;99.90;;;;;;5092056;28;20023;-74
2024/01/18 11:47:50;;;;;;;36.58;22.40;;;6.20;99.90;;;;;;5029535;28;20112;-75
2024/01/18 11:50:17;;;;;;;35.97;21.83;;;6.30;99.90;;;;;;5029014;28;20513;-74
2024/01/18 11:52:43;;;;;;;34.78;19.08;;;6.40;99.90;;;;;;5046164;28;20132;-75
2024/01/18 11:55:15;;;;;;;28.45;17.95;;;6.50;99.90;;;;;;5029113;28;20032;-75
2024/01/18 11:57:41;;;;;;;26.23;15.02;;;6.60;99.90;;;;;;5013255;28;20025;-75
2024/01/18 12:00:07;;;;;;;30.35;17.90;;;6.80;99.90;;;;;;5028840;28;20110;-74
2024/01/18 12:02:33;;;;;;;34.78;18.58;;;6.90;99.90;;;;;;5045726;28;20087;-75
2024/01/18 12:04:59;;;;;;;29.42;16.38;;;7.10;99.90;;;;;;5028808;28;20033;-75
2024/01/18 12:07:26;;;;;;;29.77;19.17;;;7.30;99.90;;;;;;5029367;28;20036;-74
2024/01/18 12:09:52;;;;;;;27.58;18.35;;;7.50;99.90;;;;;;5029027;28;20143;-74
2024/01/18 12:12:18;;;;;;;35.70;19.50;;;7.70;99.90;;;;;;5028833;28;20033;-74
2024/01/18 12:14:47;;;;;;;33.25;19.08;;;7.90;99.90;;;;;;5029161;28;20122;-74
2024/01/18 12:17:14;;;;;;;25.98;15.23;;;8.10;99.90;;;;;;5028720;28;20060;-75
2024/01/18 12:19:41;;;;;;;24.63;14.15;;;8.30;99.90;;;;;;5088662;28;20127;-74
2024/01/18 12:22:08;;;;;;;30.40;15.93;;;8.50;99.90;;;;;;5090879;28;20024;-73
2024/01/18 12:24:35;;;;;;;28.75;16.63;;;8.60;99.90;;;;;;5091569;28;20487;-74
2024/01/18 12:27:02;;;;;;;27.73;16.95;;;8.80;99.90;;;;;;5103133;28;20104;-74
2024/01/18 12:29:28;;;;;;;29.35;18.25;;;8.90;99.90;;;;;;5111788;28;20452;-75
2024/01/18 12:31:55;;;;;;;29.63;17.48;;;9.00;99.90;;;;;;5111559;28;20110;-74